sensor_id;sensor_type;location;lat;lon;timestamp;P1;durP1;ratioP1;P2;durP2;ratioP2
15171;SDS011;7686;52.184;9.280;2023-01-31T00:01:33;1.35;;;0.75;;
15171;SDS011;7686;52.184;9.280;2023-01-31T00:04:03;2.25;;;1.10;;
15171;SDS011;7686;52.184;9.280;2023-01-31T00:06:34;1.52;;;0.90;;
15171;SDS011;7686;52.184;9.280;2023-01-31T00:09:05;1.90;;;1.00;;
15171;SDS011;7686;52.184;9.280;2023-01-31T00:11:33;2.28;;;0.90;;
15171;SDS011;7686;52.184;9.280;2023-01-31T00:14:00;1.63;;;0.80;;
15171;SDS011;7686;52.184;9.280;2023-01-31T00:16:29;2.03;;;0.90;;
15171;SDS011;7686;52.184;9.280;2023-01-31T00:18:56;2.72;;;1.00;;
15171;SDS011;7686;52.184;9.280;2023-01-31T00:21:24;1.48;;;0.80;;
15171;SDS011;7686;52.184;9.280;2023-01-31T00:23:52;2.15;;;0.85;;
15171;SDS011;7686;52.184;9.280;2023-01-31T00:26:21;1.67;;;0.98;;
15171;SDS011;7686;52.184;9.280;2023-01-31T00:28:50;2.67;;;1.13;;
15171;SDS011;7686;52.184;9.280;2023-01-31T00:31:19;1.38;;;0.80;;
15171;SDS011;7686;52.184;9.280;2023-01-31T00:33:47;3.10;;;1.00;;
15171;SDS011;7686;52.184;9.280;2023-01-31T00:36:15;1.48;;;0.88;;
15171;SDS011;7686;52.184;9.280;2023-01-31T00:38:47;1.45;;;0.80;;
15171;SDS011;7686;52.184;9.280;2023-01-31T00:41:16;2.65;;;1.00;;
15171;SDS011;7686;52.184;9.280;2023-01-31T00:43:43;1.33;;;0.88;;
15171;SDS011;7686;52.184;9.280;2023-01-31T00:46:09;1.48;;;0.90;;
15171;SDS011;7686;52.184;9.280;2023-01-31T00:48:36;1.63;;;0.82;;
15171;SDS011;7686;52.184;9.280;2023-01-31T00:51:04;1.20;;;0.80;;
15171;SDS011;7686;52.184;9.280;2023-01-31T00:53:30;2.08;;;1.15;;
15171;SDS011;7686;52.184;9.280;2023-01-31T00:56:02;1.80;;;1.00;;
15171;SDS011;7686;52.184;9.280;2023-01-31T00:58:36;1.38;;;0.80;;
15171;SDS011;7686;52.184;9.280;2023-01-31T01:01:09;1.15;;;0.77;;
15171;SDS011;7686;52.184;9.280;2023-01-31T01:03:44;2.15;;;1.02;;
15171;SDS011;7686;52.184;9.280;2023-01-31T01:06:11;1.80;;;0.90;;
15171;SDS011;7686;52.184;9.280;2023-01-31T01:08:39;1.63;;;0.90;;
15171;SDS011;7686;52.184;9.280;2023-01-31T01:11:11;2.13;;;1.00;;
15171;SDS011;7686;52.184;9.280;2023-01-31T01:13:39;1.45;;;1.00;;
15171;SDS011;7686;52.184;9.280;2023-01-31T01:16:08;1.83;;;0.90;;
15171;SDS011;7686;52.184;9.280;2023-01-31T01:18:44;1.77;;;0.80;;
15171;SDS011;7686;52.184;9.280;2023-01-31T01:21:14;1.52;;;0.80;;
15171;SDS011;7686;52.184;9.280;2023-01-31T01:23:46;1.63;;;0.73;;
15171;SDS011;7686;52.184;9.280;2023-01-31T01:26:17;2.47;;;0.90;;
15171;SDS011;7686;52.184;9.280;2023-01-31T01:28:46;1.48;;;0.82;;
15171;SDS011;7686;52.184;9.280;2023-01-31T01:31:14;1.40;;;0.75;;
15171;SDS011;7686;52.184;9.280;2023-01-31T01:33:41;1.52;;;0.80;;
15171;SDS011;7686;52.184;9.280;2023-01-31T01:36:10;2.08;;;1.13;;
15171;SDS011;7686;52.184;9.280;2023-01-31T01:38:38;1.55;;;0.75;;
15171;SDS011;7686;52.184;9.280;2023-01-31T01:41:06;1.58;;;0.88;;
15171;SDS011;7686;52.184;9.280;2023-01-31T01:46:10;2.30;;;0.90;;
15171;SDS011;7686;52.184;9.280;2023-01-31T01:48:41;2.22;;;0.82;;
15171;SDS011;7686;52.184;9.280;2023-01-31T01:51:11;1.65;;;1.00;;
15171;SDS011;7686;52.184;9.280;2023-01-31T01:53:41;1.50;;;0.80;;
15171;SDS011;7686;52.184;9.280;2023-01-31T01:56:10;1.83;;;0.90;;
15171;SDS011;7686;52.184;9.280;2023-01-31T01:58:42;1.83;;;0.90;;
15171;SDS011;7686;52.184;9.280;2023-01-31T02:01:16;1.42;;;0.80;;
15171;SDS011;7686;52.184;9.280;2023-01-31T02:03:44;1.85;;;1.00;;
15171;SDS011;7686;52.184;9.280;2023-01-31T02:06:13;1.45;;;0.73;;
15171;SDS011;7686;52.184;9.280;2023-01-31T02:08:40;1.35;;;0.77;;
15171;SDS011;7686;52.184;9.280;2023-01-31T02:11:16;1.48;;;0.80;;
15171;SDS011;7686;52.184;9.280;2023-01-31T02:13:45;1.83;;;0.80;;
15171;SDS011;7686;52.184;9.280;2023-01-31T02:16:13;1.27;;;0.80;;
15171;SDS011;7686;52.184;9.280;2023-01-31T02:18:41;1.30;;;0.82;;
15171;SDS011;7686;52.184;9.280;2023-01-31T02:49:07;1.48;;;0.80;;
15171;SDS011;7686;52.184;9.280;2023-01-31T02:51:37;3.40;;;0.70;;
15171;SDS011;7686;52.184;9.280;2023-01-31T02:54:28;1.40;;;0.80;;
15171;SDS011;7686;52.184;9.280;2023-01-31T02:57:18;1.52;;;0.88;;
15171;SDS011;7686;52.184;9.280;2023-01-31T02:59:45;0.98;;;0.70;;
15171;SDS011;7686;52.184;9.280;2023-01-31T03:02:11;1.42;;;0.70;;
15171;SDS011;7686;52.184;9.280;2023-01-31T03:04:38;1.58;;;0.77;;
15171;SDS011;7686;52.184;9.280;2023-01-31T03:07:12;1.13;;;0.70;;
15171;SDS011;7686;52.184;9.280;2023-01-31T03:15:59;1.25;;;0.75;;
15171;SDS011;7686;52.184;9.280;2023-01-31T03:21:41;1.15;;;0.70;;
15171;SDS011;7686;52.184;9.280;2023-01-31T03:24:12;1.63;;;0.98;;
15171;SDS011;7686;52.184;9.280;2023-01-31T03:26:42;0.93;;;0.60;;
15171;SDS011;7686;52.184;9.280;2023-01-31T03:29:10;0.75;;;0.60;;
15171;SDS011;7686;52.184;9.280;2023-01-31T03:34:42;1.15;;;0.60;;
15171;SDS011;7686;52.184;9.280;2023-01-31T03:37:15;0.70;;;0.55;;
15171;SDS011;7686;52.184;9.280;2023-01-31T03:40:04;2.15;;;0.70;;
15171;SDS011;7686;52.184;9.280;2023-01-31T03:42:40;1.08;;;0.70;;
15171;SDS011;7686;52.184;9.280;2023-01-31T03:45:09;1.42;;;0.73;;
15171;SDS011;7686;52.184;9.280;2023-01-31T03:47:51;1.08;;;0.57;;
15171;SDS011;7686;52.184;9.280;2023-01-31T03:50:22;1.65;;;0.80;;
15171;SDS011;7686;52.184;9.280;2023-01-31T03:53:16;1.00;;;0.68;;
15171;SDS011;7686;52.184;9.280;2023-01-31T03:55:50;1.77;;;0.90;;
15171;SDS011;7686;52.184;9.280;2023-01-31T03:58:23;0.95;;;0.60;;
15171;SDS011;7686;52.184;9.280;2023-01-31T04:00:54;1.88;;;0.70;;
15171;SDS011;7686;52.184;9.280;2023-01-31T04:03:24;1.30;;;0.75;;
15171;SDS011;7686;52.184;9.280;2023-01-31T04:05:55;1.27;;;0.70;;
15171;SDS011;7686;52.184;9.280;2023-01-31T04:08:22;1.05;;;0.70;;
15171;SDS011;7686;52.184;9.280;2023-01-31T04:10:48;1.55;;;0.80;;
15171;SDS011;7686;52.184;9.280;2023-01-31T04:13:15;2.13;;;0.80;;
15171;SDS011;7686;52.184;9.280;2023-01-31T04:15:42;1.92;;;0.77;;
15171;SDS011;7686;52.184;9.280;2023-01-31T04:18:09;1.85;;;0.85;;
15171;SDS011;7686;52.184;9.280;2023-01-31T04:20:36;1.02;;;0.75;;
15171;SDS011;7686;52.184;9.280;2023-01-31T04:23:03;1.38;;;0.70;;
15171;SDS011;7686;52.184;9.280;2023-01-31T04:25:30;1.25;;;0.70;;
15171;SDS011;7686;52.184;9.280;2023-01-31T04:27:58;1.58;;;0.75;;
15171;SDS011;7686;52.184;9.280;2023-01-31T04:30:25;1.02;;;0.70;;
15171;SDS011;7686;52.184;9.280;2023-01-31T04:32:51;4.10;;;1.10;;
15171;SDS011;7686;52.184;9.280;2023-01-31T04:35:18;0.70;;;0.70;;
15171;SDS011;7686;52.184;9.280;2023-01-31T04:37:45;1.63;;;0.80;;
15171;SDS011;7686;52.184;9.280;2023-01-31T04:40:12;1.52;;;0.70;;
15171;SDS011;7686;52.184;9.280;2023-01-31T04:42:41;0.85;;;0.60;;
15171;SDS011;7686;52.184;9.280;2023-01-31T04:45:08;0.80;;;0.70;;
15171;SDS011;7686;52.184;9.280;2023-01-31T04:47:35;1.10;;;0.80;;
15171;SDS011;7686;52.184;9.280;2023-01-31T04:50:02;1.25;;;0.60;;
15171;SDS011;7686;52.184;9.280;2023-01-31T04:52:29;0.98;;;0.60;;
15171;SDS011;7686;52.184;9.280;2023-01-31T04:54:56;0.90;;;0.60;;
15171;SDS011;7686;52.184;9.280;2023-01-31T04:57:23;1.67;;;0.73;;
15171;SDS011;7686;52.184;9.280;2023-01-31T04:59:50;1.55;;;0.80;;
15171;SDS011;7686;52.184;9.280;2023-01-31T05:02:17;1.95;;;0.65;;
15171;SDS011;7686;52.184;9.280;2023-01-31T05:04:44;0.80;;;0.45;;
15171;SDS011;7686;52.184;9.280;2023-01-31T05:07:11;1.30;;;0.65;;
15171;SDS011;7686;52.184;9.280;2023-01-31T05:09:37;0.77;;;0.70;;
15171;SDS011;7686;52.184;9.280;2023-01-31T05:12:04;1.13;;;0.80;;
15171;SDS011;7686;52.184;9.280;2023-01-31T05:14:31;1.23;;;0.77;;
15171;SDS011;7686;52.184;9.280;2023-01-31T05:16:58;0.85;;;0.57;;
15171;SDS011;7686;52.184;9.280;2023-01-31T05:19:25;1.38;;;0.70;;
15171;SDS011;7686;52.184;9.280;2023-01-31T05:21:51;1.00;;;0.65;;
15171;SDS011;7686;52.184;9.280;2023-01-31T05:24:24;0.63;;;0.60;;
15171;SDS011;7686;52.184;9.280;2023-01-31T05:26:53;1.10;;;0.70;;
15171;SDS011;7686;52.184;9.280;2023-01-31T05:29:25;1.10;;;0.60;;
15171;SDS011;7686;52.184;9.280;2023-01-31T05:31:56;1.13;;;0.70;;
15171;SDS011;7686;52.184;9.280;2023-01-31T05:34:25;1.10;;;0.60;;
15171;SDS011;7686;52.184;9.280;2023-01-31T05:36:54;0.75;;;0.50;;
15171;SDS011;7686;52.184;9.280;2023-01-31T05:39:20;1.40;;;0.60;;
15171;SDS011;7686;52.184;9.280;2023-01-31T05:41:47;0.95;;;0.70;;
15171;SDS011;7686;52.184;9.280;2023-01-31T05:44:14;0.45;;;0.45;;
15171;SDS011;7686;52.184;9.280;2023-01-31T05:46:41;0.65;;;0.47;;
15171;SDS011;7686;52.184;9.280;2023-01-31T05:49:08;1.08;;;0.80;;
15171;SDS011;7686;52.184;9.280;2023-01-31T05:51:35;1.70;;;0.70;;
15171;SDS011;7686;52.184;9.280;2023-01-31T05:54:01;1.88;;;0.82;;
15171;SDS011;7686;52.184;9.280;2023-01-31T05:56:28;0.70;;;0.60;;
15171;SDS011;7686;52.184;9.280;2023-01-31T05:58:54;0.82;;;0.55;;
15171;SDS011;7686;52.184;9.280;2023-01-31T06:01:22;1.38;;;0.77;;
15171;SDS011;7686;52.184;9.280;2023-01-31T06:03:50;1.08;;;0.60;;
15171;SDS011;7686;52.184;9.280;2023-01-31T06:06:17;1.60;;;0.77;;
15171;SDS011;7686;52.184;9.280;2023-01-31T06:08:45;0.50;;;0.47;;
15171;SDS011;7686;52.184;9.280;2023-01-31T06:11:12;1.73;;;0.50;;
15171;SDS011;7686;52.184;9.280;2023-01-31T06:13:40;0.80;;;0.63;;
15171;SDS011;7686;52.184;9.280;2023-01-31T06:16:11;1.33;;;0.80;;
15171;SDS011;7686;52.184;9.280;2023-01-31T06:18:37;1.27;;;0.77;;
15171;SDS011;7686;52.184;9.280;2023-01-31T06:21:04;1.27;;;0.75;;
15171;SDS011;7686;52.184;9.280;2023-01-31T06:23:31;1.48;;;0.70;;
15171;SDS011;7686;52.184;9.280;2023-01-31T06:25:59;0.90;;;0.70;;
15171;SDS011;7686;52.184;9.280;2023-01-31T06:28:26;0.70;;;0.60;;
15171;SDS011;7686;52.184;9.280;2023-01-31T06:30:53;1.27;;;0.70;;
15171;SDS011;7686;52.184;9.280;2023-01-31T06:33:20;0.75;;;0.50;;
15171;SDS011;7686;52.184;9.280;2023-01-31T06:35:59;1.02;;;0.50;;
15171;SDS011;7686;52.184;9.280;2023-01-31T06:38:26;0.70;;;0.52;;
15171;SDS011;7686;52.184;9.280;2023-01-31T06:40:53;0.68;;;0.50;;
15171;SDS011;7686;52.184;9.280;2023-01-31T06:43:20;0.95;;;0.52;;
15171;SDS011;7686;52.184;9.280;2023-01-31T06:45:47;0.68;;;0.47;;
15171;SDS011;7686;52.184;9.280;2023-01-31T06:48:17;0.85;;;0.55;;
15171;SDS011;7686;52.184;9.280;2023-01-31T06:50:45;1.27;;;0.70;;
15171;SDS011;7686;52.184;9.280;2023-01-31T06:53:12;2.53;;;0.70;;
15171;SDS011;7686;52.184;9.280;2023-01-31T06:55:39;2.60;;;0.60;;
15171;SDS011;7686;52.184;9.280;2023-01-31T06:58:05;2.53;;;0.80;;
15171;SDS011;7686;52.184;9.280;2023-01-31T07:00:32;1.13;;;0.60;;
15171;SDS011;7686;52.184;9.280;2023-01-31T07:02:58;1.30;;;0.60;;
15171;SDS011;7686;52.184;9.280;2023-01-31T07:05:25;3.85;;;0.73;;
15171;SDS011;7686;52.184;9.280;2023-01-31T07:07:52;2.97;;;0.60;;
15171;SDS011;7686;52.184;9.280;2023-01-31T07:10:19;1.20;;;0.60;;
15171;SDS011;7686;52.184;9.280;2023-01-31T07:12:45;2.35;;;0.80;;
15171;SDS011;7686;52.184;9.280;2023-01-31T07:15:12;2.00;;;0.55;;
15171;SDS011;7686;52.184;9.280;2023-01-31T07:17:39;1.65;;;0.68;;
15171;SDS011;7686;52.184;9.280;2023-01-31T07:20:06;1.65;;;0.70;;
15171;SDS011;7686;52.184;9.280;2023-01-31T07:22:33;1.58;;;0.73;;
15171;SDS011;7686;52.184;9.280;2023-01-31T07:24:59;1.27;;;0.70;;
15171;SDS011;7686;52.184;9.280;2023-01-31T07:27:26;2.15;;;1.00;;
15171;SDS011;7686;52.184;9.280;2023-01-31T07:29:53;3.72;;;0.70;;
15171;SDS011;7686;52.184;9.280;2023-01-31T07:32:19;3.22;;;0.70;;
15171;SDS011;7686;52.184;9.280;2023-01-31T07:34:46;1.45;;;0.73;;
15171;SDS011;7686;52.184;9.280;2023-01-31T07:37:12;2.97;;;0.85;;
15171;SDS011;7686;52.184;9.280;2023-01-31T07:39:39;2.83;;;0.90;;
15171;SDS011;7686;52.184;9.280;2023-01-31T07:42:05;1.52;;;0.70;;
15171;SDS011;7686;52.184;9.280;2023-01-31T07:44:32;3.67;;;0.90;;
15171;SDS011;7686;52.184;9.280;2023-01-31T07:46:59;1.50;;;0.60;;
15171;SDS011;7686;52.184;9.280;2023-01-31T07:49:25;3.75;;;0.68;;
15171;SDS011;7686;52.184;9.280;2023-01-31T07:51:52;2.58;;;0.70;;
15171;SDS011;7686;52.184;9.280;2023-01-31T07:54:18;2.33;;;0.70;;
15171;SDS011;7686;52.184;9.280;2023-01-31T07:56:45;2.05;;;0.60;;
15171;SDS011;7686;52.184;9.280;2023-01-31T07:59:12;1.17;;;0.70;;
15171;SDS011;7686;52.184;9.280;2023-01-31T08:01:39;1.85;;;0.65;;
15171;SDS011;7686;52.184;9.280;2023-01-31T08:04:24;2.40;;;0.80;;
15171;SDS011;7686;52.184;9.280;2023-01-31T08:06:52;2.33;;;0.80;;
15171;SDS011;7686;52.184;9.280;2023-01-31T08:09:20;3.13;;;1.00;;
15171;SDS011;7686;52.184;9.280;2023-01-31T08:11:48;2.55;;;0.80;;
15171;SDS011;7686;52.184;9.280;2023-01-31T08:14:14;2.83;;;1.10;;
15171;SDS011;7686;52.184;9.280;2023-01-31T08:16:41;2.97;;;0.80;;
15171;SDS011;7686;52.184;9.280;2023-01-31T08:19:08;1.95;;;0.82;;
15171;SDS011;7686;52.184;9.280;2023-01-31T08:21:34;1.67;;;0.80;;
15171;SDS011;7686;52.184;9.280;2023-01-31T08:24:01;0.80;;;0.70;;
15171;SDS011;7686;52.184;9.280;2023-01-31T08:26:28;1.73;;;0.80;;
15171;SDS011;7686;52.184;9.280;2023-01-31T08:28:55;2.05;;;0.90;;
15171;SDS011;7686;52.184;9.280;2023-01-31T08:31:23;2.83;;;0.93;;
15171;SDS011;7686;52.184;9.280;2023-01-31T08:33:51;3.08;;;0.80;;
15171;SDS011;7686;52.184;9.280;2023-01-31T08:36:28;5.78;;;0.90;;
15171;SDS011;7686;52.184;9.280;2023-01-31T08:38:59;2.72;;;1.10;;
15171;SDS011;7686;52.184;9.280;2023-01-31T08:41:26;3.55;;;1.10;;
15171;SDS011;7686;52.184;9.280;2023-01-31T08:43:54;3.95;;;1.10;;
15171;SDS011;7686;52.184;9.280;2023-01-31T08:46:25;3.45;;;1.20;;
15171;SDS011;7686;52.184;9.280;2023-01-31T08:48:56;2.05;;;1.02;;
15171;SDS011;7686;52.184;9.280;2023-01-31T08:51:23;1.65;;;1.00;;
15171;SDS011;7686;52.184;9.280;2023-01-31T08:53:49;3.17;;;1.20;;
15171;SDS011;7686;52.184;9.280;2023-01-31T08:56:16;3.95;;;1.10;;
15171;SDS011;7686;52.184;9.280;2023-01-31T08:58:44;1.50;;;0.80;;
15171;SDS011;7686;52.184;9.280;2023-01-31T09:01:11;2.30;;;1.00;;
15171;SDS011;7686;52.184;9.280;2023-01-31T09:03:41;3.55;;;1.13;;
15171;SDS011;7686;52.184;9.280;2023-01-31T09:06:14;2.30;;;1.00;;
15171;SDS011;7686;52.184;9.280;2023-01-31T09:08:43;3.20;;;1.00;;
15171;SDS011;7686;52.184;9.280;2023-01-31T09:11:10;2.05;;;1.00;;
15171;SDS011;7686;52.184;9.280;2023-01-31T09:13:42;3.00;;;1.00;;
15171;SDS011;7686;52.184;9.280;2023-01-31T09:16:09;2.38;;;1.08;;
15171;SDS011;7686;52.184;9.280;2023-01-31T09:18:37;3.72;;;1.00;;
15171;SDS011;7686;52.184;9.280;2023-01-31T09:21:22;2.65;;;1.05;;
15171;SDS011;7686;52.184;9.280;2023-01-31T09:23:54;1.48;;;0.75;;
15171;SDS011;7686;52.184;9.280;2023-01-31T09:26:22;2.75;;;0.98;;
15171;SDS011;7686;52.184;9.280;2023-01-31T09:28:49;1.88;;;0.93;;
15171;SDS011;7686;52.184;9.280;2023-01-31T09:31:17;2.65;;;0.90;;
15171;SDS011;7686;52.184;9.280;2023-01-31T09:33:48;8.20;;;1.10;;
15171;SDS011;7686;52.184;9.280;2023-01-31T09:36:16;3.58;;;1.20;;
15171;SDS011;7686;52.184;9.280;2023-01-31T09:38:44;3.00;;;1.08;;
15171;SDS011;7686;52.184;9.280;2023-01-31T09:41:17;1.90;;;0.98;;
15171;SDS011;7686;52.184;9.280;2023-01-31T09:44:04;1.48;;;0.85;;
15171;SDS011;7686;52.184;9.280;2023-01-31T09:46:38;2.75;;;1.08;;
15171;SDS011;7686;52.184;9.280;2023-01-31T09:49:16;2.05;;;0.85;;
15171;SDS011;7686;52.184;9.280;2023-01-31T09:51:54;1.90;;;0.88;;
15171;SDS011;7686;52.184;9.280;2023-01-31T09:54:34;3.13;;;0.95;;
15171;SDS011;7686;52.184;9.280;2023-01-31T09:57:09;2.63;;;0.85;;
15171;SDS011;7686;52.184;9.280;2023-01-31T10:11:05;2.45;;;0.85;;
15171;SDS011;7686;52.184;9.280;2023-01-31T10:13:40;2.50;;;0.88;;
15171;SDS011;7686;52.184;9.280;2023-01-31T10:18:57;2.65;;;1.00;;
15171;SDS011;7686;52.184;9.280;2023-01-31T10:21:29;2.30;;;0.90;;
15171;SDS011;7686;52.184;9.280;2023-01-31T10:24:02;2.85;;;1.00;;
15171;SDS011;7686;52.184;9.280;2023-01-31T10:26:38;2.97;;;1.00;;
15171;SDS011;7686;52.184;9.280;2023-01-31T10:29:21;3.95;;;1.02;;
15171;SDS011;7686;52.184;9.280;2023-01-31T10:31:56;6.30;;;0.98;;
15171;SDS011;7686;52.184;9.280;2023-01-31T10:34:33;2.45;;;0.95;;
15171;SDS011;7686;52.184;9.280;2023-01-31T10:39:45;3.58;;;0.85;;
15171;SDS011;7686;52.184;9.280;2023-01-31T10:42:34;3.30;;;0.90;;
15171;SDS011;7686;52.184;9.280;2023-01-31T10:45:19;3.92;;;0.90;;
15171;SDS011;7686;52.184;9.280;2023-01-31T10:56:15;3.38;;;0.90;;
15171;SDS011;7686;52.184;9.280;2023-01-31T10:58:56;1.92;;;0.90;;
15171;SDS011;7686;52.184;9.280;2023-01-31T11:01:25;2.17;;;0.90;;
15171;SDS011;7686;52.184;9.280;2023-01-31T11:03:53;1.88;;;1.00;;
15171;SDS011;7686;52.184;9.280;2023-01-31T11:06:21;2.25;;;1.02;;
15171;SDS011;7686;52.184;9.280;2023-01-31T11:08:50;3.15;;;0.77;;
15171;SDS011;7686;52.184;9.280;2023-01-31T11:11:23;3.45;;;0.80;;
15171;SDS011;7686;52.184;9.280;2023-01-31T11:14:05;1.30;;;0.85;;
15171;SDS011;7686;52.184;9.280;2023-01-31T11:16:42;4.18;;;0.77;;
15171;SDS011;7686;52.184;9.280;2023-01-31T11:19:16;1.70;;;0.88;;
15171;SDS011;7686;52.184;9.280;2023-01-31T11:22:16;1.90;;;0.90;;
15171;SDS011;7686;52.184;9.280;2023-01-31T11:24:52;3.50;;;0.80;;
15171;SDS011;7686;52.184;9.280;2023-01-31T11:27:23;1.55;;;0.80;;
15171;SDS011;7686;52.184;9.280;2023-01-31T11:29:52;3.47;;;1.00;;
15171;SDS011;7686;52.184;9.280;2023-01-31T11:32:27;2.00;;;0.77;;
15171;SDS011;7686;52.184;9.280;2023-01-31T11:34:56;3.58;;;0.98;;
15171;SDS011;7686;52.184;9.280;2023-01-31T11:37:25;4.57;;;1.08;;
15171;SDS011;7686;52.184;9.280;2023-01-31T11:39:57;2.15;;;0.90;;
15171;SDS011;7686;52.184;9.280;2023-01-31T11:42:26;3.08;;;1.10;;
15171;SDS011;7686;52.184;9.280;2023-01-31T11:49:59;3.58;;;1.08;;
15171;SDS011;7686;52.184;9.280;2023-01-31T11:52:28;3.65;;;1.10;;
15171;SDS011;7686;52.184;9.280;2023-01-31T11:54:58;1.63;;;0.95;;
15171;SDS011;7686;52.184;9.280;2023-01-31T11:57:36;6.60;;;1.15;;
15171;SDS011;7686;52.184;9.280;2023-01-31T12:00:23;2.47;;;1.10;;
15171;SDS011;7686;52.184;9.280;2023-01-31T12:02:57;1.50;;;1.08;;
15171;SDS011;7686;52.184;9.280;2023-01-31T12:05:35;4.78;;;1.10;;
15171;SDS011;7686;52.184;9.280;2023-01-31T12:08:34;1.55;;;0.90;;
15171;SDS011;7686;52.184;9.280;2023-01-31T12:11:06;2.35;;;0.90;;
15171;SDS011;7686;52.184;9.280;2023-01-31T12:16:31;2.17;;;0.98;;
15171;SDS011;7686;52.184;9.280;2023-01-31T12:19:16;1.83;;;1.10;;
15171;SDS011;7686;52.184;9.280;2023-01-31T12:22:05;7.55;;;1.25;;
15171;SDS011;7686;52.184;9.280;2023-01-31T12:24:46;2.35;;;1.25;;
15171;SDS011;7686;52.184;9.280;2023-01-31T12:30:43;3.17;;;1.38;;
15171;SDS011;7686;52.184;9.280;2023-01-31T12:33:22;1.80;;;1.00;;
15171;SDS011;7686;52.184;9.280;2023-01-31T12:36:29;4.30;;;0.90;;
15171;SDS011;7686;52.184;9.280;2023-01-31T12:47:53;3.78;;;0.90;;
15171;SDS011;7686;52.184;9.280;2023-01-31T12:50:51;2.35;;;1.02;;
15171;SDS011;7686;52.184;9.280;2023-01-31T12:56:25;7.10;;;1.50;;
15171;SDS011;7686;52.184;9.280;2023-01-31T12:59:19;4.07;;;1.45;;
15171;SDS011;7686;52.184;9.280;2023-01-31T13:01:59;6.20;;;1.67;;
15171;SDS011;7686;52.184;9.280;2023-01-31T13:04:35;3.30;;;1.27;;
15171;SDS011;7686;52.184;9.280;2023-01-31T13:07:07;3.15;;;1.20;;
15171;SDS011;7686;52.184;9.280;2023-01-31T13:09:39;3.58;;;1.60;;
15171;SDS011;7686;52.184;9.280;2023-01-31T13:14:39;3.80;;;1.35;;
15171;SDS011;7686;52.184;9.280;2023-01-31T13:17:13;3.38;;;1.20;;
15171;SDS011;7686;52.184;9.280;2023-01-31T13:19:48;6.63;;;1.50;;
15171;SDS011;7686;52.184;9.280;2023-01-31T13:22:20;3.58;;;1.23;;
15171;SDS011;7686;52.184;9.280;2023-01-31T13:24:48;2.30;;;1.00;;
15171;SDS011;7686;52.184;9.280;2023-01-31T13:27:34;2.50;;;1.10;;
15171;SDS011;7686;52.184;9.280;2023-01-31T13:30:09;3.42;;;1.25;;
15171;SDS011;7686;52.184;9.280;2023-01-31T13:32:45;1.95;;;1.10;;
15171;SDS011;7686;52.184;9.280;2023-01-31T13:35:22;2.63;;;1.30;;
15171;SDS011;7686;52.184;9.280;2023-01-31T13:37:58;4.78;;;1.08;;
15171;SDS011;7686;52.184;9.280;2023-01-31T13:40:28;4.10;;;1.40;;
15171;SDS011;7686;52.184;9.280;2023-01-31T13:43:01;3.08;;;1.38;;
15171;SDS011;7686;52.184;9.280;2023-01-31T13:45:37;4.20;;;1.30;;
15171;SDS011;7686;52.184;9.280;2023-01-31T13:51:16;3.40;;;1.17;;
15171;SDS011;7686;52.184;9.280;2023-01-31T13:53:48;2.47;;;1.15;;
15171;SDS011;7686;52.184;9.280;2023-01-31T13:56:21;3.20;;;1.15;;
15171;SDS011;7686;52.184;9.280;2023-01-31T13:58:53;2.75;;;1.20;;
15171;SDS011;7686;52.184;9.280;2023-01-31T14:01:21;3.63;;;1.10;;
15171;SDS011;7686;52.184;9.280;2023-01-31T14:04:18;3.75;;;1.23;;
15171;SDS011;7686;52.184;9.280;2023-01-31T14:06:53;2.58;;;1.17;;
15171;SDS011;7686;52.184;9.280;2023-01-31T14:17:13;4.78;;;1.30;;
15171;SDS011;7686;52.184;9.280;2023-01-31T14:22:13;1.98;;;1.20;;
15171;SDS011;7686;52.184;9.280;2023-01-31T14:27:16;2.83;;;1.17;;
15171;SDS011;7686;52.184;9.280;2023-01-31T14:32:31;2.97;;;1.15;;
15171;SDS011;7686;52.184;9.280;2023-01-31T14:40:33;3.30;;;1.00;;
15171;SDS011;7686;52.184;9.280;2023-01-31T14:51:47;2.35;;;1.20;;
15171;SDS011;7686;52.184;9.280;2023-01-31T14:57:41;1.83;;;1.10;;
15171;SDS011;7686;52.184;9.280;2023-01-31T15:16:16;2.10;;;1.00;;
15171;SDS011;7686;52.184;9.280;2023-01-31T15:18:51;2.38;;;1.00;;
15171;SDS011;7686;52.184;9.280;2023-01-31T15:21:35;2.53;;;0.90;;
15171;SDS011;7686;52.184;9.280;2023-01-31T15:24:11;2.58;;;1.10;;
15171;SDS011;7686;52.184;9.280;2023-01-31T15:26:55;2.17;;;0.98;;
15171;SDS011;7686;52.184;9.280;2023-01-31T15:29:25;2.97;;;1.02;;
15171;SDS011;7686;52.184;9.280;2023-01-31T15:32:00;1.55;;;0.90;;
15171;SDS011;7686;52.184;9.280;2023-01-31T15:34:45;4.90;;;1.10;;
15171;SDS011;7686;52.184;9.280;2023-01-31T15:37:22;1.85;;;1.00;;
15171;SDS011;7686;52.184;9.280;2023-01-31T15:39:55;2.33;;;0.95;;
15171;SDS011;7686;52.184;9.280;2023-01-31T15:42:50;2.35;;;1.10;;
15171;SDS011;7686;52.184;9.280;2023-01-31T15:45:20;3.67;;;1.17;;
15171;SDS011;7686;52.184;9.280;2023-01-31T15:47:59;1.98;;;0.90;;
15171;SDS011;7686;52.184;9.280;2023-01-31T15:50:28;2.75;;;1.00;;
15171;SDS011;7686;52.184;9.280;2023-01-31T15:53:12;2.20;;;1.00;;
15171;SDS011;7686;52.184;9.280;2023-01-31T15:55:40;2.13;;;1.20;;
15171;SDS011;7686;52.184;9.280;2023-01-31T15:58:10;2.88;;;1.30;;
15171;SDS011;7686;52.184;9.280;2023-01-31T16:00:47;1.85;;;0.82;;
15171;SDS011;7686;52.184;9.280;2023-01-31T16:03:20;2.65;;;1.13;;
15171;SDS011;7686;52.184;9.280;2023-01-31T16:05:53;1.77;;;1.05;;
15171;SDS011;7686;52.184;9.280;2023-01-31T16:08:26;2.60;;;1.20;;
15171;SDS011;7686;52.184;9.280;2023-01-31T16:10:59;4.22;;;1.20;;
15171;SDS011;7686;52.184;9.280;2023-01-31T16:13:30;2.38;;;1.10;;
15171;SDS011;7686;52.184;9.280;2023-01-31T16:15:58;4.72;;;1.00;;
15171;SDS011;7686;52.184;9.280;2023-01-31T16:18:25;3.72;;;1.17;;
15171;SDS011;7686;52.184;9.280;2023-01-31T16:20:53;1.52;;;0.85;;
15171;SDS011;7686;52.184;9.280;2023-01-31T16:23:26;1.55;;;0.80;;
15171;SDS011;7686;52.184;9.280;2023-01-31T16:25:57;1.33;;;0.93;;
15171;SDS011;7686;52.184;9.280;2023-01-31T16:28:25;10.45;;;1.30;;
15171;SDS011;7686;52.184;9.280;2023-01-31T16:31:02;1.92;;;1.02;;
15171;SDS011;7686;52.184;9.280;2023-01-31T16:33:34;3.25;;;1.20;;
15171;SDS011;7686;52.184;9.280;2023-01-31T16:36:08;2.42;;;0.95;;
15171;SDS011;7686;52.184;9.280;2023-01-31T16:38:43;3.85;;;1.10;;
15171;SDS011;7686;52.184;9.280;2023-01-31T16:41:49;3.90;;;1.00;;
15171;SDS011;7686;52.184;9.280;2023-01-31T16:44:18;2.10;;;0.93;;
15171;SDS011;7686;52.184;9.280;2023-01-31T16:46:47;3.03;;;0.98;;
15171;SDS011;7686;52.184;9.280;2023-01-31T16:51:50;3.70;;;1.20;;
15171;SDS011;7686;52.184;9.280;2023-01-31T16:54:43;1.73;;;0.98;;
15171;SDS011;7686;52.184;9.280;2023-01-31T17:00:04;4.28;;;1.40;;
15171;SDS011;7686;52.184;9.280;2023-01-31T17:02:33;6.65;;;1.02;;
15171;SDS011;7686;52.184;9.280;2023-01-31T17:05:16;3.60;;;1.13;;
15171;SDS011;7686;52.184;9.280;2023-01-31T17:07:44;3.05;;;1.17;;
15171;SDS011;7686;52.184;9.280;2023-01-31T17:10:17;2.55;;;1.13;;
15171;SDS011;7686;52.184;9.280;2023-01-31T17:12:44;3.60;;;1.20;;
15171;SDS011;7686;52.184;9.280;2023-01-31T17:15:15;2.83;;;1.17;;
15171;SDS011;7686;52.184;9.280;2023-01-31T17:17:44;2.95;;;1.17;;
15171;SDS011;7686;52.184;9.280;2023-01-31T17:20:14;3.33;;;1.30;;
15171;SDS011;7686;52.184;9.280;2023-01-31T17:22:43;2.65;;;1.38;;
15171;SDS011;7686;52.184;9.280;2023-01-31T17:25:19;2.92;;;1.15;;
15171;SDS011;7686;52.184;9.280;2023-01-31T17:27:49;2.78;;;1.25;;
15171;SDS011;7686;52.184;9.280;2023-01-31T17:30:17;2.17;;;1.05;;
15171;SDS011;7686;52.184;9.280;2023-01-31T17:32:45;2.33;;;1.20;;
15171;SDS011;7686;52.184;9.280;2023-01-31T17:35:17;3.65;;;1.08;;
15171;SDS011;7686;52.184;9.280;2023-01-31T17:37:59;4.18;;;1.25;;
15171;SDS011;7686;52.184;9.280;2023-01-31T17:40:26;3.22;;;1.20;;
15171;SDS011;7686;52.184;9.280;2023-01-31T17:42:57;2.90;;;1.33;;
15171;SDS011;7686;52.184;9.280;2023-01-31T17:45:26;2.30;;;1.30;;
15171;SDS011;7686;52.184;9.280;2023-01-31T17:47:53;2.60;;;1.10;;
15171;SDS011;7686;52.184;9.280;2023-01-31T17:50:24;2.35;;;1.15;;
15171;SDS011;7686;52.184;9.280;2023-01-31T17:52:52;2.08;;;0.90;;
15171;SDS011;7686;52.184;9.280;2023-01-31T17:55:19;3.65;;;1.55;;
15171;SDS011;7686;52.184;9.280;2023-01-31T17:57:48;1.73;;;0.88;;